createdAt,value
2022-07-29T00:00:41.018Z,39.40
2022-07-29T00:03:09.032Z,39.27
2022-07-29T00:05:38.229Z,39.43
2022-07-29T00:08:09.393Z,39.46
2022-07-29T00:10:40.623Z,39.72
2022-07-29T00:13:08.449Z,39.57
2022-07-29T00:15:36.294Z,39.51
2022-07-29T00:18:04.176Z,39.50
2022-07-29T00:20:32.179Z,39.62
2022-07-29T00:23:01.360Z,39.69
2022-07-29T00:25:29.344Z,39.68
2022-07-29T00:27:57.136Z,39.57
2022-07-29T00:30:25.196Z,39.69
2022-07-29T00:32:53.066Z,39.88
2022-07-29T00:35:38.651Z,39.81
2022-07-29T00:38:07.852Z,39.76
2022-07-29T00:40:35.865Z,39.90
2022-07-29T00:43:03.789Z,39.82
2022-07-29T00:45:31.941Z,39.71
2022-07-29T00:47:59.855Z,39.90
2022-07-29T00:50:28.298Z,40.07
2022-07-29T00:52:56.250Z,39.72
2022-07-29T00:55:25.789Z,39.99
2022-07-29T00:57:55.061Z,39.99
2022-07-29T01:00:25.531Z,40.12
2022-07-29T01:02:53.824Z,39.90
2022-07-29T01:05:23.858Z,40.24
2022-07-29T01:07:54.569Z,40.12
2022-07-29T01:10:24.764Z,40.08
2022-07-29T01:12:55.709Z,40.27
2022-07-29T01:15:23.895Z,40.25
2022-07-29T01:18:01.738Z,40.26
2022-07-29T01:20:46.473Z,40.29
2022-07-29T01:23:50.193Z,40.29
2022-07-29T01:26:30.267Z,40.44
2022-07-29T01:29:14.827Z,40.34
2022-07-29T01:32:00.520Z,40.44
2022-07-29T01:34:43.095Z,40.43
2022-07-29T01:37:20.329Z,40.51
2022-07-29T01:39:50.034Z,40.72
2022-07-29T01:42:26.132Z,40.63
2022-07-29T01:44:59.582Z,40.58
2022-07-29T01:47:31.377Z,40.70
2022-07-29T01:50:01.804Z,40.94
2022-07-29T01:52:35.957Z,40.86
2022-07-29T01:55:09.863Z,40.87
2022-07-29T01:57:40.971Z,40.56
2022-07-29T02:00:12.000Z,41.08
2022-07-29T02:02:42.620Z,40.98
2022-07-29T02:05:14.631Z,41.10
2022-07-29T02:07:44.107Z,40.73
2022-07-29T02:10:13.985Z,41.20
2022-07-29T02:12:50.736Z,41.13
2022-07-29T02:15:21.076Z,41.00
2022-07-29T02:17:53.907Z,41.07
2022-07-29T02:20:22.141Z,41.15
2022-07-29T02:22:52.367Z,41.30
2022-07-29T02:25:20.683Z,41.21
2022-07-29T02:27:51.529Z,41.25
2022-07-29T02:30:23.823Z,41.28
2022-07-29T02:32:52.883Z,41.54
2022-07-29T02:35:22.183Z,41.38
2022-07-29T02:38:06.502Z,41.43
2022-07-29T02:40:36.376Z,41.44
2022-07-29T02:43:07.314Z,41.43
2022-07-29T02:45:36.652Z,41.59
2022-07-29T02:48:11.381Z,41.69
2022-07-29T02:50:43.434Z,41.71
2022-07-29T02:53:17.204Z,41.72
2022-07-29T02:55:48.191Z,41.67
2022-07-29T02:58:23.810Z,41.97
2022-07-29T03:00:55.041Z,41.74
2022-07-29T03:03:23.953Z,41.80
2022-07-29T03:05:54.425Z,42.03
2022-07-29T03:08:23.814Z,41.85
2022-07-29T03:10:53.349Z,41.97
2022-07-29T03:13:22.135Z,41.97
2022-07-29T03:15:50.793Z,41.75
2022-07-29T03:18:20.170Z,42.03
2022-07-29T03:20:48.162Z,41.99
2022-07-29T03:23:21.828Z,42.25
2022-07-29T03:25:49.968Z,42.11
2022-07-29T03:28:17.948Z,42.14
2022-07-29T03:30:47.226Z,42.28
2022-07-29T03:33:15.952Z,42.22
2022-07-29T03:35:45.173Z,42.40
2022-07-29T03:38:13.100Z,42.26
2022-07-29T03:40:44.987Z,42.31
2022-07-29T03:43:17.475Z,42.26
2022-07-29T03:45:46.485Z,42.28
2022-07-29T03:48:17.401Z,42.52
2022-07-29T03:50:47.024Z,42.23
2022-07-29T03:53:15.073Z,42.76
2022-07-29T03:55:47.117Z,42.62
2022-07-29T03:58:17.268Z,42.54
2022-07-29T04:00:45.960Z,42.64
2022-07-29T04:03:15.894Z,42.67
2022-07-29T04:05:45.083Z,42.77
2022-07-29T04:08:14.374Z,42.75
2022-07-29T04:10:42.272Z,42.79
2022-07-29T04:13:10.180Z,42.70
2022-07-29T04:15:38.156Z,42.98
2022-07-29T04:18:06.753Z,42.93
2022-07-29T04:20:34.593Z,42.93
2022-07-29T04:23:02.482Z,42.90
2022-07-29T04:25:31.859Z,42.97
2022-07-29T04:28:02.457Z,42.95
2022-07-29T04:30:30.837Z,42.86
2022-07-29T04:32:58.700Z,43.08
2022-07-29T04:35:26.693Z,42.97
2022-07-29T04:37:54.771Z,43.06
2022-07-29T04:40:22.940Z,43.02
2022-07-29T04:42:52.207Z,43.20
2022-07-29T04:45:22.907Z,43.09
2022-07-29T04:47:50.960Z,43.44
2022-07-29T04:50:19.056Z,43.43
2022-07-29T04:52:46.948Z,43.66
2022-07-29T04:55:14.862Z,43.38
2022-07-29T04:57:42.789Z,43.63
2022-07-29T05:00:14.085Z,43.55
2022-07-29T05:02:42.043Z,43.57
2022-07-29T05:05:10.429Z,43.65
2022-07-29T05:07:38.376Z,43.61
2022-07-29T05:10:07.317Z,43.47
2022-07-29T05:12:35.203Z,43.75
2022-07-29T05:15:03.136Z,44.00
2022-07-29T05:17:32.319Z,43.82
2022-07-29T05:20:00.300Z,43.92
2022-07-29T05:22:28.192Z,43.95
2022-07-29T05:24:56.024Z,43.73
2022-07-29T05:27:23.936Z,44.05
2022-07-29T05:29:52.111Z,44.13
2022-07-29T05:32:20.062Z,44.07
2022-07-29T05:34:50.712Z,44.19
2022-07-29T05:37:20.238Z,44.17
2022-07-29T05:39:50.637Z,44.24
2022-07-29T05:42:24.939Z,44.25
2022-07-29T05:44:52.916Z,44.21
2022-07-29T05:47:20.860Z,44.24
2022-07-29T05:49:50.354Z,44.34
2022-07-29T05:52:18.720Z,44.65
2022-07-29T05:54:46.583Z,44.57
2022-07-29T05:57:17.941Z,44.38
2022-07-29T05:59:46.028Z,44.57
2022-07-29T06:02:13.910Z,44.43
2022-07-29T06:04:41.915Z,44.83
2022-07-29T06:07:12.297Z,44.80
2022-07-29T06:09:40.231Z,44.91
2022-07-29T06:12:08.227Z,44.73
2022-07-29T06:14:36.161Z,45.00
2022-07-29T06:17:04.058Z,44.90
2022-07-29T06:19:31.912Z,44.84
2022-07-29T06:21:59.787Z,44.89
2022-07-29T06:24:29.143Z,45.14
2022-07-29T06:26:57.143Z,45.06
2022-07-29T06:29:25.043Z,45.25
2022-07-29T06:31:52.967Z,45.07
2022-07-29T06:34:21.239Z,45.28
2022-07-29T06:36:50.538Z,45.21
2022-07-29T06:39:18.720Z,45.37
2022-07-29T06:41:51.452Z,45.41
2022-07-29T06:44:20.545Z,45.49
2022-07-29T06:46:50.090Z,45.33
2022-07-29T06:49:18.286Z,45.46
2022-07-29T06:51:46.325Z,45.48
2022-07-29T06:54:14.499Z,45.59
2022-07-29T06:56:44.026Z,45.49
2022-07-29T06:59:14.328Z,45.65
2022-07-29T07:01:43.823Z,45.41
2022-07-29T07:04:12.533Z,45.84
2022-07-29T07:06:40.813Z,45.81
2022-07-29T07:09:08.743Z,45.74
2022-07-29T07:11:36.803Z,45.66
2022-07-29T07:14:04.951Z,45.83
2022-07-29T07:16:34.374Z,45.73
2022-07-29T07:19:02.430Z,45.85
2022-07-29T07:21:30.970Z,45.91
2022-07-29T07:23:59.521Z,45.83
2022-07-29T07:26:28.022Z,46.01
2022-07-29T07:28:56.249Z,45.94
2022-07-29T07:31:24.265Z,45.88
2022-07-29T07:33:54.499Z,46.00
2022-07-29T07:36:22.776Z,46.06
2022-07-29T07:38:51.196Z,46.24
2022-07-29T07:41:19.335Z,46.04
2022-07-29T07:43:47.456Z,46.10
2022-07-29T07:46:15.517Z,45.98
2022-07-29T07:48:43.629Z,46.19
2022-07-29T07:51:12.966Z,46.07
2022-07-29T07:53:40.955Z,46.20
2022-07-29T07:56:11.904Z,46.21
2022-07-29T07:58:40.990Z,46.21
2022-07-29T08:01:09.116Z,46.08
2022-07-29T08:03:37.409Z,46.27
2022-07-29T08:06:05.948Z,46.18
2022-07-29T08:08:35.261Z,46.53
2022-07-29T08:11:08.980Z,46.17
2022-07-29T08:13:38.744Z,46.13
2022-07-29T08:16:16.463Z,46.30
2022-07-29T08:18:46.598Z,46.00
2022-07-29T08:21:15.536Z,46.12
2022-07-29T08:23:59.644Z,46.25
2022-07-29T08:26:29.841Z,46.28
2022-07-29T08:28:57.725Z,46.36
2022-07-29T08:31:25.757Z,46.33
2022-07-29T08:33:53.872Z,46.49
2022-07-29T08:36:22.920Z,46.44
2022-07-29T08:38:52.222Z,46.29
2022-07-29T08:41:20.741Z,46.44
2022-07-29T08:43:48.857Z,46.51
2022-07-29T08:46:18.033Z,46.15
2022-07-29T08:48:46.362Z,46.55
2022-07-29T08:51:16.710Z,46.37
2022-07-29T08:53:46.103Z,46.28
2022-07-29T08:56:17.716Z,46.00
2022-07-29T08:58:46.855Z,46.35
2022-07-29T09:01:35.054Z,46.53
2022-07-29T09:04:07.050Z,46.25
2022-07-29T09:06:39.845Z,46.56
2022-07-29T09:09:10.113Z,46.24
2022-07-29T09:11:39.617Z,46.25
2022-07-29T09:14:07.581Z,46.41
2022-07-29T09:16:54.342Z,46.25
2022-07-29T09:19:25.069Z,45.91
2022-07-29T09:21:59.830Z,46.06
2022-07-29T09:24:44.968Z,46.42
2022-07-29T09:27:23.263Z,46.41
2022-07-29T09:29:59.541Z,46.34
2022-07-29T09:32:28.294Z,45.98
2022-07-29T09:35:21.941Z,46.28
2022-07-29T09:37:50.473Z,46.11
2022-07-29T09:40:20.882Z,46.06
2022-07-29T09:42:50.487Z,45.92
2022-07-29T09:45:29.449Z,45.91
2022-07-29T09:47:59.938Z,46.14
2022-07-29T09:50:37.856Z,45.79
2022-07-29T09:53:06.094Z,46.00
2022-07-29T09:55:34.330Z,45.86
2022-07-29T09:58:19.288Z,46.01
2022-07-29T10:00:48.579Z,45.94
2022-07-29T10:03:17.754Z,46.09
2022-07-29T10:05:46.413Z,45.88
2022-07-29T10:08:14.695Z,46.12
2022-07-29T10:10:46.114Z,46.18
2022-07-29T10:13:16.631Z,46.00
2022-07-29T10:15:47.287Z,45.87
2022-07-29T10:18:18.275Z,46.08
2022-07-29T10:20:47.210Z,46.05
2022-07-29T10:23:15.337Z,46.36
2022-07-29T10:25:46.341Z,45.82
2022-07-29T10:28:16.678Z,46.25
2022-07-29T10:30:48.426Z,45.91
2022-07-29T10:33:43.319Z,45.92
2022-07-29T10:36:25.763Z,46.19
2022-07-29T10:39:05.063Z,45.81
2022-07-29T10:42:11.955Z,46.09
2022-07-29T10:44:43.767Z,45.88
2022-07-29T10:47:24.435Z,46.36
2022-07-29T10:50:02.500Z,46.28
2022-07-29T10:52:55.322Z,46.00
2022-07-29T10:55:35.944Z,46.10
2022-07-29T10:58:15.562Z,46.15
2022-07-29T11:00:46.723Z,46.03
2022-07-29T11:07:08.883Z,45.99
2022-07-29T11:09:38.425Z,45.92
2022-07-29T11:12:46.803Z,46.07
2022-07-29T11:15:19.843Z,45.93
2022-07-29T11:18:15.003Z,45.96
2022-07-29T11:20:46.704Z,45.95
2022-07-29T11:23:26.038Z,45.81
2022-07-29T11:26:18.524Z,45.82
2022-07-29T11:28:53.584Z,45.68
2022-07-29T11:31:39.260Z,45.84
2022-07-29T11:37:27.751Z,45.63
2022-07-29T11:40:19.968Z,45.86
2022-07-29T11:42:51.921Z,45.84
2022-07-29T11:45:42.916Z,45.89
2022-07-29T11:48:29.753Z,45.64
2022-07-29T11:51:01.081Z,45.23
2022-07-29T11:56:25.562Z,45.46
2022-07-29T11:59:05.144Z,45.50
2022-07-29T12:01:36.500Z,45.63
2022-07-29T12:04:06.888Z,45.19
2022-07-29T12:06:35.954Z,45.14
2022-07-29T12:09:14.619Z,44.81
2022-07-29T12:11:42.771Z,45.00
2022-07-29T12:14:29.107Z,45.13
2022-07-29T12:16:57.634Z,44.94
2022-07-29T12:19:26.894Z,45.01
2022-07-29T12:21:59.729Z,45.12
2022-07-29T12:24:44.900Z,44.94
2022-07-29T12:27:13.875Z,44.90
2022-07-29T12:29:42.900Z,44.77
2022-07-29T12:32:19.858Z,44.30
2022-07-29T12:34:48.534Z,44.18
2022-07-29T12:37:16.623Z,44.57
2022-07-29T12:39:46.310Z,44.57
2022-07-29T12:42:15.210Z,44.06
2022-07-29T12:44:50.752Z,43.97
2022-07-29T12:47:20.073Z,43.99
2022-07-29T12:49:48.635Z,44.31
2022-07-29T12:52:27.001Z,44.18
2022-07-29T12:54:56.370Z,44.24
2022-07-29T12:57:24.933Z,43.86
2022-07-29T13:00:10.224Z,43.94
2022-07-29T13:02:38.327Z,43.95
2022-07-29T13:05:09.242Z,43.30
2022-07-29T13:07:54.276Z,43.82
2022-07-29T13:10:26.869Z,43.74
2022-07-29T13:13:06.334Z,43.30
2022-07-29T13:15:34.903Z,43.49
2022-07-29T13:18:03.165Z,43.47
2022-07-29T13:20:31.772Z,43.39
2022-07-29T13:23:00.727Z,42.94
2022-07-29T13:25:32.675Z,42.90
2022-07-29T13:28:01.382Z,43.06
2022-07-29T13:30:31.212Z,42.81
2022-07-29T13:32:59.145Z,43.02
2022-07-29T13:35:29.487Z,42.88
2022-07-29T13:37:57.551Z,42.72
2022-07-29T13:40:25.684Z,42.66
2022-07-29T13:42:54.964Z,42.52
2022-07-29T13:45:23.159Z,42.57
2022-07-29T13:47:51.039Z,42.47
2022-07-29T13:50:18.980Z,42.39
2022-07-29T13:52:49.047Z,42.12
2022-07-29T13:55:16.941Z,41.95
2022-07-29T13:57:44.890Z,41.89
2022-07-29T14:00:16.039Z,42.16
2022-07-29T14:02:44.162Z,41.94
2022-07-29T14:05:12.132Z,41.83
2022-07-29T14:07:40.744Z,41.62
2022-07-29T14:10:09.817Z,41.65
2022-07-29T14:12:37.804Z,41.62
2022-07-29T14:15:06.858Z,41.32
2022-07-29T14:17:36.373Z,41.12
2022-07-29T14:20:04.672Z,41.55
2022-07-29T14:22:32.648Z,41.17
2022-07-29T14:25:01.485Z,41.13
2022-07-29T14:27:38.737Z,40.92
2022-07-29T14:30:08.429Z,40.93
2022-07-29T14:32:37.826Z,40.76
2022-07-29T14:35:06.670Z,40.55
2022-07-29T14:37:39.761Z,40.54
2022-07-29T14:40:10.183Z,40.66
2022-07-29T14:42:38.495Z,40.47
2022-07-29T14:45:07.981Z,40.22
2022-07-29T14:47:37.787Z,40.32
2022-07-29T14:50:07.473Z,39.95
2022-07-29T14:52:35.836Z,40.09
2022-07-29T14:55:04.322Z,40.12
2022-07-29T14:57:32.930Z,40.12
2022-07-29T15:00:00.852Z,39.87
2022-07-29T15:02:52.229Z,39.61
2022-07-29T15:05:18.322Z,39.67
2022-07-29T15:07:46.156Z,39.37
2022-07-29T15:10:14.801Z,39.58
2022-07-29T15:12:43.549Z,39.49
2022-07-29T15:15:11.723Z,39.37
2022-07-29T15:17:39.650Z,39.24
2022-07-29T15:20:08.415Z,39.09
2022-07-29T15:22:39.040Z,39.26
2022-07-29T15:25:08.043Z,39.11
2022-07-29T15:27:35.988Z,39.00
2022-07-29T15:30:04.086Z,39.00
2022-07-29T15:32:32.073Z,38.93
2022-07-29T15:35:00.100Z,38.78
2022-07-29T15:37:29.291Z,38.48
2022-07-29T15:40:18.289Z,38.61
2022-07-29T15:42:46.214Z,38.53
2022-07-29T15:45:14.143Z,38.61
2022-07-29T15:47:42.174Z,38.05
2022-07-29T15:50:15.664Z,38.32
2022-07-29T15:52:43.810Z,38.31
2022-07-29T15:55:11.774Z,38.00
2022-07-29T15:57:41.547Z,38.17
2022-07-29T16:00:10.794Z,37.95
2022-07-29T16:02:38.709Z,37.82
2022-07-29T16:05:09.451Z,37.91
2022-07-29T16:07:37.683Z,37.54
2022-07-29T16:10:07.929Z,37.76
2022-07-29T16:12:35.877Z,37.77
2022-07-29T16:15:09.761Z,37.63
2022-07-29T16:17:38.875Z,37.49
2022-07-29T16:20:08.217Z,37.51
2022-07-29T16:22:36.243Z,37.30
2022-07-29T16:25:04.253Z,37.17
2022-07-29T16:27:37.934Z,37.19
2022-07-29T16:30:10.007Z,37.26
2022-07-29T16:32:38.328Z,36.96
2022-07-29T16:35:07.103Z,37.29
2022-07-29T16:37:36.557Z,37.13
2022-07-29T16:40:06.147Z,36.80
2022-07-29T16:42:46.439Z,36.62
2022-07-29T16:45:16.569Z,36.68
2022-07-29T16:47:46.175Z,37.02
2022-07-29T16:50:14.095Z,36.86
2022-07-29T16:52:42.147Z,36.94
2022-07-29T16:55:10.322Z,36.72
2022-07-29T16:57:38.159Z,36.35
2022-07-29T17:00:07.762Z,36.48
2022-07-29T17:02:38.640Z,36.77
2022-07-29T17:05:07.855Z,36.26
2022-07-29T17:07:35.847Z,36.35
2022-07-29T17:10:05.132Z,36.26
2022-07-29T17:12:33.206Z,36.36
2022-07-29T17:15:01.117Z,36.57
2022-07-29T17:17:39.096Z,36.07
2022-07-29T17:20:17.580Z,35.99
2022-07-29T17:22:45.672Z,36.62
2022-07-29T17:25:21.073Z,36.16
2022-07-29T17:27:50.579Z,36.60
2022-07-29T17:30:19.007Z,36.44
2022-07-29T17:32:47.014Z,36.06
2022-07-29T17:35:33.831Z,36.35
2022-07-29T17:38:01.938Z,36.02
2022-07-29T17:40:29.816Z,36.16
2022-07-29T17:42:57.828Z,36.16
2022-07-29T17:45:26.210Z,36.06
2022-07-29T17:48:14.146Z,35.90
2022-07-29T17:50:43.444Z,35.99
2022-07-29T17:53:16.347Z,36.20
2022-07-29T17:55:45.710Z,35.87
2022-07-29T17:58:13.783Z,35.78
2022-07-29T18:00:41.786Z,36.15
2022-07-29T18:03:10.058Z,36.01
2022-07-29T18:05:38.181Z,36.13
2022-07-29T18:08:07.614Z,35.77
2022-07-29T18:10:35.679Z,35.91
2022-07-29T18:13:04.046Z,36.09
2022-07-29T18:15:32.026Z,36.01
2022-07-29T18:17:59.981Z,35.79
2022-07-29T18:20:28.169Z,36.04
2022-07-29T18:22:56.090Z,35.58
2022-07-29T18:25:25.708Z,35.54
2022-07-29T18:27:58.420Z,35.82
2022-07-29T18:30:28.248Z,35.88
2022-07-29T18:33:19.871Z,35.80
2022-07-29T18:35:44.930Z,35.90
2022-07-29T18:38:12.932Z,35.70
2022-07-29T18:40:42.958Z,35.67
2022-07-29T18:43:10.905Z,35.59
2022-07-29T18:45:39.594Z,35.53
2022-07-29T18:48:11.853Z,35.46
2022-07-29T18:50:41.362Z,35.59
2022-07-29T18:53:09.692Z,35.69
2022-07-29T18:55:37.569Z,35.73
2022-07-29T18:58:06.971Z,35.49
2022-07-29T19:00:35.410Z,35.52
2022-07-29T19:03:04.205Z,35.48
2022-07-29T19:05:32.633Z,35.67
2022-07-29T19:08:00.467Z,35.60
2022-07-29T19:10:28.381Z,35.65
2022-07-29T19:12:56.804Z,35.51
2022-07-29T19:15:26.377Z,35.50
2022-07-29T19:17:57.786Z,35.75
2022-07-29T19:20:28.666Z,35.52
2022-07-29T19:22:56.833Z,35.72
2022-07-29T19:25:25.028Z,35.50
2022-07-29T19:27:52.981Z,35.62
2022-07-29T19:30:21.321Z,35.48
2022-07-29T19:32:51.104Z,35.54
2022-07-29T19:35:25.609Z,35.69
2022-07-29T19:37:54.563Z,35.81
2022-07-29T19:40:23.103Z,35.63
2022-07-29T19:42:51.738Z,35.96
2022-07-29T19:45:20.545Z,35.78
2022-07-29T19:47:48.781Z,35.52
2022-07-29T19:50:18.114Z,35.71
2022-07-29T19:52:47.078Z,35.78
2022-07-29T19:55:15.619Z,35.91
2022-07-29T19:57:43.952Z,35.90
2022-07-29T20:00:14.150Z,35.95
2022-07-29T20:02:43.249Z,36.16
2022-07-29T20:05:12.298Z,35.95
2022-07-29T20:07:41.742Z,36.15
2022-07-29T20:10:11.034Z,36.38
2022-07-29T20:12:39.037Z,36.20
2022-07-29T20:15:09.294Z,36.56
2022-07-29T20:17:44.305Z,36.58
2022-07-29T20:20:12.791Z,36.36
2022-07-29T20:22:42.134Z,36.43
2022-07-29T20:25:11.936Z,36.66
2022-07-29T20:27:40.606Z,36.89
2022-07-29T20:30:13.356Z,36.85
2022-07-29T20:32:41.907Z,36.99
2022-07-29T20:35:12.012Z,37.00
2022-07-29T20:37:55.803Z,37.20
2022-07-29T20:40:24.271Z,37.37
2022-07-29T20:42:52.109Z,37.43
2022-07-29T20:45:20.093Z,37.50
2022-07-29T20:47:48.047Z,37.54
2022-07-29T20:50:16.038Z,37.74
2022-07-29T20:52:45.252Z,37.70
2022-07-29T20:55:13.163Z,37.77
2022-07-29T20:57:41.234Z,38.00
2022-07-29T21:00:10.407Z,37.95
2022-07-29T21:02:38.396Z,38.18
2022-07-29T21:05:07.271Z,38.30
2022-07-29T21:07:35.313Z,38.53
2022-07-29T21:10:05.915Z,38.62
2022-07-29T21:12:33.845Z,38.72
2022-07-29T21:15:05.739Z,38.76
2022-07-29T21:17:35.942Z,38.75
2022-07-29T21:20:05.448Z,39.09
2022-07-29T21:22:33.297Z,39.01
2022-07-29T21:25:01.740Z,39.10
2022-07-29T21:27:48.421Z,39.44
2022-07-29T21:30:16.376Z,39.51
2022-07-29T21:32:44.359Z,39.56
2022-07-29T21:35:30.321Z,39.68
2022-07-29T21:38:00.883Z,39.79
2022-07-29T21:40:29.963Z,39.99
2022-07-29T21:42:59.259Z,39.99
2022-07-29T21:45:27.400Z,40.12
2022-07-29T21:47:55.308Z,40.48
2022-07-29T21:50:23.227Z,40.31
2022-07-29T21:52:51.115Z,40.45
2022-07-29T21:55:19.378Z,40.59
2022-07-29T21:57:48.990Z,40.48
2022-07-29T22:00:18.475Z,40.84
2022-07-29T22:06:35.409Z,41.13
2022-07-29T22:09:03.318Z,41.31
2022-07-29T22:11:31.501Z,41.48
2022-07-29T22:13:59.846Z,41.55
2022-07-29T22:16:27.762Z,41.69
2022-07-29T22:18:55.685Z,41.84
2022-07-29T22:21:23.563Z,41.96
2022-07-29T22:23:52.849Z,42.06
2022-07-29T22:26:20.757Z,42.19
2022-07-29T22:28:48.572Z,42.36
2022-07-29T22:31:16.986Z,42.37
2022-07-29T22:33:44.936Z,42.47
2022-07-29T22:36:12.981Z,42.74
2022-07-29T22:38:40.891Z,42.70
2022-07-29T22:41:10.214Z,42.94
2022-07-29T22:43:43.488Z,43.04
2022-07-29T22:46:12.054Z,43.17
2022-07-29T22:48:40.099Z,43.38
2022-07-29T22:51:08.271Z,43.36
2022-07-29T22:53:37.021Z,43.42
2022-07-29T22:56:05.642Z,43.71
2022-07-29T22:58:34.948Z,43.73
2022-07-29T23:01:02.885Z,43.85
2022-07-29T23:03:30.911Z,44.02
2022-07-29T23:05:58.838Z,44.16
2022-07-29T23:08:26.719Z,44.25
2022-07-29T23:10:54.602Z,44.36
2022-07-29T23:13:22.580Z,44.51
2022-07-29T23:15:51.813Z,44.61
2022-07-29T23:18:20.022Z,44.71
2022-07-29T23:20:48.165Z,44.84
2022-07-29T23:23:16.052Z,44.96
2022-07-29T23:25:43.928Z,45.20
2022-07-29T23:28:13.237Z,45.24
2022-07-29T23:30:41.715Z,45.24
2022-07-29T23:33:11.059Z,45.45
2022-07-29T23:35:39.073Z,45.45
2022-07-29T23:38:07.352Z,45.57
2022-07-29T23:40:35.324Z,45.82
2022-07-29T23:43:03.164Z,45.86
2022-07-29T23:45:44.631Z,46.02
2022-07-29T23:48:15.041Z,46.24
2022-07-29T23:50:43.655Z,46.26
2022-07-29T23:53:12.066Z,46.37
2022-07-29T23:55:39.978Z,46.57
2022-07-29T23:58:07.874Z,46.68
